MBPV

Providenciales International Airport

Providenciales, , Turks and Caicos Islands
MBPV 260430Z 2606/2706 12006KT 9999 SCT018
Issued Valid From Valid To
Apr-26 @ 04:30 UTC
(2 hours ago)
Apr-26 @ 06:00 UTC
(3 minutes ago)
Apr-27 @ 06:00 UTC
(in 24 hours)
Apr-26 @ 06:00 to Apr-27 @ 06:00
MBPV 260430Z 2606/2706 12006KT 9999 SCT018
Wind Visibility Clouds
120° at 6 knots 10,000+ meters
  • Scattered at 1,800' AGL
MBPV 260430Z 2606/2706 12006KT 9999 SCT018
Issued Apr-26 @ 04:30 UTC
(2 hours ago)
Valid From Apr-26 @ 06:00 UTC
(3 minutes ago)
Valid To Apr-27 @ 06:00 UTC
(in 24 hours)
Apr-26 @ 06:00 - Apr-27 @ 06:00
Wind Visibility
120° at 6 knots 10,000+ meters
Clouds
  • Scattered at 1,800' AGL